sensor_id;sensor_type;location;lat;lon;timestamp;P1;durP1;ratioP1;P2;durP2;ratioP2
65706;SDS011;52423;43.512;5.220;2023-04-03T00:01:13;0.40;;;0.40;;
65706;SDS011;52423;43.512;5.220;2023-04-03T00:03:39;0.63;;;0.63;;
65706;SDS011;52423;43.512;5.220;2023-04-03T00:06:06;0.38;;;0.30;;
65706;SDS011;52423;43.512;5.220;2023-04-03T00:08:33;0.50;;;0.50;;
65706;SDS011;52423;43.512;5.220;2023-04-03T00:10:59;1.05;;;0.40;;
65706;SDS011;52423;43.512;5.220;2023-04-03T00:13:25;0.47;;;0.40;;
65706;SDS011;52423;43.512;5.220;2023-04-03T00:15:51;0.30;;;0.30;;
65706;SDS011;52423;43.512;5.220;2023-04-03T00:18:16;0.65;;;0.60;;
65706;SDS011;52423;43.512;5.220;2023-04-03T00:20:42;0.30;;;0.30;;
65706;SDS011;52423;43.512;5.220;2023-04-03T00:23:07;0.40;;;0.40;;
65706;SDS011;52423;43.512;5.220;2023-04-03T00:25:33;0.73;;;0.40;;
65706;SDS011;52423;43.512;5.220;2023-04-03T00:27:59;0.30;;;0.30;;
65706;SDS011;52423;43.512;5.220;2023-04-03T00:30:24;0.30;;;0.30;;
65706;SDS011;52423;43.512;5.220;2023-04-03T00:32:51;0.70;;;0.30;;
65706;SDS011;52423;43.512;5.220;2023-04-03T00:35:17;0.40;;;0.32;;
65706;SDS011;52423;43.512;5.220;2023-04-03T00:37:43;0.20;;;0.20;;
65706;SDS011;52423;43.512;5.220;2023-04-03T00:40:10;0.30;;;0.30;;
65706;SDS011;52423;43.512;5.220;2023-04-03T00:42:37;0.20;;;0.20;;
65706;SDS011;52423;43.512;5.220;2023-04-03T00:47:29;0.20;;;0.20;;
65706;SDS011;52423;43.512;5.220;2023-04-03T00:49:55;0.20;;;0.20;;
65706;SDS011;52423;43.512;5.220;2023-04-03T00:52:23;0.28;;;0.28;;
65706;SDS011;52423;43.512;5.220;2023-04-03T00:54:53;0.30;;;0.30;;
65706;SDS011;52423;43.512;5.220;2023-04-03T00:57:22;2.10;;;0.30;;
65706;SDS011;52423;43.512;5.220;2023-04-03T00:59:51;0.20;;;0.20;;
65706;SDS011;52423;43.512;5.220;2023-04-03T01:02:21;2.78;;;0.55;;
65706;SDS011;52423;43.512;5.220;2023-04-03T01:04:46;0.90;;;0.30;;
65706;SDS011;52423;43.512;5.220;2023-04-03T01:09:40;0.30;;;0.30;;
65706;SDS011;52423;43.512;5.220;2023-04-03T01:12:20;0.50;;;0.50;;
65706;SDS011;52423;43.512;5.220;2023-04-03T01:14:49;0.50;;;0.50;;
65706;SDS011;52423;43.512;5.220;2023-04-03T01:20:12;0.50;;;0.50;;
65706;SDS011;52423;43.512;5.220;2023-04-03T01:25:44;0.40;;;0.40;;
65706;SDS011;52423;43.512;5.220;2023-04-03T01:28:17;0.30;;;0.30;;
65706;SDS011;52423;43.512;5.220;2023-04-03T01:30:47;0.30;;;0.30;;
65706;SDS011;52423;43.512;5.220;2023-04-03T01:33:16;0.50;;;0.50;;
65706;SDS011;52423;43.512;5.220;2023-04-03T01:35:41;0.55;;;0.55;;
65706;SDS011;52423;43.512;5.220;2023-04-03T01:38:06;0.40;;;0.40;;
65706;SDS011;52423;43.512;5.220;2023-04-03T01:40:32;0.50;;;0.50;;
65706;SDS011;52423;43.512;5.220;2023-04-03T01:42:57;0.40;;;0.40;;
65706;SDS011;52423;43.512;5.220;2023-04-03T01:45:23;0.40;;;0.40;;
65706;SDS011;52423;43.512;5.220;2023-04-03T01:47:48;0.80;;;0.50;;
65706;SDS011;52423;43.512;5.220;2023-04-03T01:50:14;0.50;;;0.50;;
65706;SDS011;52423;43.512;5.220;2023-04-03T01:52:39;0.50;;;0.50;;
65706;SDS011;52423;43.512;5.220;2023-04-03T01:55:05;0.60;;;0.60;;
65706;SDS011;52423;43.512;5.220;2023-04-03T01:57:30;0.40;;;0.40;;
65706;SDS011;52423;43.512;5.220;2023-04-03T01:59:56;0.65;;;0.40;;
65706;SDS011;52423;43.512;5.220;2023-04-03T02:02:21;0.40;;;0.40;;
65706;SDS011;52423;43.512;5.220;2023-04-03T02:04:46;0.40;;;0.40;;
65706;SDS011;52423;43.512;5.220;2023-04-03T02:07:12;0.43;;;0.43;;
65706;SDS011;52423;43.512;5.220;2023-04-03T02:09:37;0.60;;;0.60;;
65706;SDS011;52423;43.512;5.220;2023-04-03T02:12:03;0.60;;;0.60;;
65706;SDS011;52423;43.512;5.220;2023-04-03T02:14:28;2.90;;;0.50;;
65706;SDS011;52423;43.512;5.220;2023-04-03T02:16:53;0.60;;;0.60;;
65706;SDS011;52423;43.512;5.220;2023-04-03T02:19:19;0.50;;;0.50;;
65706;SDS011;52423;43.512;5.220;2023-04-03T02:21:44;0.50;;;0.50;;
65706;SDS011;52423;43.512;5.220;2023-04-03T02:24:10;0.65;;;0.60;;
65706;SDS011;52423;43.512;5.220;2023-04-03T02:26:35;0.95;;;0.60;;
65706;SDS011;52423;43.512;5.220;2023-04-03T02:29:01;0.60;;;0.60;;
65706;SDS011;52423;43.512;5.220;2023-04-03T02:31:26;0.50;;;0.50;;
65706;SDS011;52423;43.512;5.220;2023-04-03T02:33:51;2.28;;;0.50;;
65706;SDS011;52423;43.512;5.220;2023-04-03T02:36:17;0.50;;;0.50;;
65706;SDS011;52423;43.512;5.220;2023-04-03T02:38:42;0.60;;;0.60;;
65706;SDS011;52423;43.512;5.220;2023-04-03T02:41:10;0.52;;;0.50;;
65706;SDS011;52423;43.512;5.220;2023-04-03T02:43:36;0.77;;;0.70;;
65706;SDS011;52423;43.512;5.220;2023-04-03T02:46:02;0.50;;;0.50;;
65706;SDS011;52423;43.512;5.220;2023-04-03T02:48:28;0.50;;;0.50;;
65706;SDS011;52423;43.512;5.220;2023-04-03T02:50:53;0.63;;;0.63;;
65706;SDS011;52423;43.512;5.220;2023-04-03T02:53:19;0.50;;;0.50;;
65706;SDS011;52423;43.512;5.220;2023-04-03T02:55:45;0.60;;;0.60;;
65706;SDS011;52423;43.512;5.220;2023-04-03T02:58:10;1.08;;;0.60;;
65706;SDS011;52423;43.512;5.220;2023-04-03T03:00:36;0.50;;;0.50;;
65706;SDS011;52423;43.512;5.220;2023-04-03T03:03:02;0.55;;;0.55;;
65706;SDS011;52423;43.512;5.220;2023-04-03T03:05:28;0.55;;;0.55;;
65706;SDS011;52423;43.512;5.220;2023-04-03T03:07:54;0.50;;;0.50;;
65706;SDS011;52423;43.512;5.220;2023-04-03T03:10:20;0.95;;;0.68;;
65706;SDS011;52423;43.512;5.220;2023-04-03T03:12:46;0.60;;;0.50;;
65706;SDS011;52423;43.512;5.220;2023-04-03T03:15:12;1.05;;;0.80;;
65706;SDS011;52423;43.512;5.220;2023-04-03T03:17:37;0.65;;;0.65;;
65706;SDS011;52423;43.512;5.220;2023-04-03T03:20:03;0.60;;;0.60;;
65706;SDS011;52423;43.512;5.220;2023-04-03T03:22:30;0.75;;;0.75;;
65706;SDS011;52423;43.512;5.220;2023-04-03T03:24:55;0.82;;;0.70;;
65706;SDS011;52423;43.512;5.220;2023-04-03T03:27:21;2.10;;;0.52;;
65706;SDS011;52423;43.512;5.220;2023-04-03T03:29:46;0.60;;;0.60;;
65706;SDS011;52423;43.512;5.220;2023-04-03T03:32:12;0.82;;;0.82;;
65706;SDS011;52423;43.512;5.220;2023-04-03T03:34:37;0.80;;;0.80;;
65706;SDS011;52423;43.512;5.220;2023-04-03T03:37:02;0.70;;;0.70;;
65706;SDS011;52423;43.512;5.220;2023-04-03T03:39:28;0.68;;;0.68;;
65706;SDS011;52423;43.512;5.220;2023-04-03T03:41:53;1.00;;;0.77;;
65706;SDS011;52423;43.512;5.220;2023-04-03T03:44:19;3.22;;;0.77;;
65706;SDS011;52423;43.512;5.220;2023-04-03T03:46:45;2.45;;;0.80;;
65706;SDS011;52423;43.512;5.220;2023-04-03T03:49:10;0.63;;;0.63;;
65706;SDS011;52423;43.512;5.220;2023-04-03T03:51:36;1.20;;;0.70;;
65706;SDS011;52423;43.512;5.220;2023-04-03T03:54:02;0.60;;;0.60;;
65706;SDS011;52423;43.512;5.220;2023-04-03T03:56:28;0.60;;;0.60;;
65706;SDS011;52423;43.512;5.220;2023-04-03T03:58:54;0.60;;;0.60;;
65706;SDS011;52423;43.512;5.220;2023-04-03T04:01:21;1.35;;;0.70;;
65706;SDS011;52423;43.512;5.220;2023-04-03T04:03:47;0.77;;;0.77;;
65706;SDS011;52423;43.512;5.220;2023-04-03T04:06:12;0.70;;;0.70;;
65706;SDS011;52423;43.512;5.220;2023-04-03T04:08:38;0.88;;;0.88;;
65706;SDS011;52423;43.512;5.220;2023-04-03T04:11:03;0.90;;;0.90;;
65706;SDS011;52423;43.512;5.220;2023-04-03T04:13:29;1.20;;;1.10;;
65706;SDS011;52423;43.512;5.220;2023-04-03T04:15:54;0.75;;;0.75;;
65706;SDS011;52423;43.512;5.220;2023-04-03T04:18:19;0.50;;;0.50;;
65706;SDS011;52423;43.512;5.220;2023-04-03T04:20:46;0.65;;;0.65;;
65706;SDS011;52423;43.512;5.220;2023-04-03T04:23:11;0.55;;;0.55;;
65706;SDS011;52423;43.512;5.220;2023-04-03T04:25:37;0.50;;;0.50;;
65706;SDS011;52423;43.512;5.220;2023-04-03T04:28:02;0.60;;;0.60;;
65706;SDS011;52423;43.512;5.220;2023-04-03T04:30:28;0.47;;;0.47;;
65706;SDS011;52423;43.512;5.220;2023-04-03T04:32:53;0.85;;;0.82;;
65706;SDS011;52423;43.512;5.220;2023-04-03T04:35:19;3.20;;;0.60;;
65706;SDS011;52423;43.512;5.220;2023-04-03T04:37:44;0.63;;;0.50;;
65706;SDS011;52423;43.512;5.220;2023-04-03T04:40:10;0.60;;;0.60;;
65706;SDS011;52423;43.512;5.220;2023-04-03T04:42:36;0.40;;;0.40;;
65706;SDS011;52423;43.512;5.220;2023-04-03T04:45:01;0.40;;;0.40;;
65706;SDS011;52423;43.512;5.220;2023-04-03T04:47:28;2.30;;;0.57;;
65706;SDS011;52423;43.512;5.220;2023-04-03T04:49:53;0.68;;;0.68;;
65706;SDS011;52423;43.512;5.220;2023-04-03T04:52:19;1.13;;;0.60;;
65706;SDS011;52423;43.512;5.220;2023-04-03T04:54:45;0.52;;;0.50;;
65706;SDS011;52423;43.512;5.220;2023-04-03T04:57:11;0.82;;;0.70;;
65706;SDS011;52423;43.512;5.220;2023-04-03T04:59:36;0.40;;;0.40;;
65706;SDS011;52423;43.512;5.220;2023-04-03T05:02:01;0.70;;;0.70;;
65706;SDS011;52423;43.512;5.220;2023-04-03T05:04:27;0.63;;;0.60;;
65706;SDS011;52423;43.512;5.220;2023-04-03T05:06:52;2.28;;;0.60;;
65706;SDS011;52423;43.512;5.220;2023-04-03T05:09:18;0.82;;;0.50;;
65706;SDS011;52423;43.512;5.220;2023-04-03T05:11:45;0.95;;;0.60;;
65706;SDS011;52423;43.512;5.220;2023-04-03T05:14:11;0.65;;;0.65;;
65706;SDS011;52423;43.512;5.220;2023-04-03T05:16:36;1.40;;;0.43;;
65706;SDS011;52423;43.512;5.220;2023-04-03T05:19:02;2.05;;;0.55;;
65706;SDS011;52423;43.512;5.220;2023-04-03T05:21:27;0.30;;;0.30;;
65706;SDS011;52423;43.512;5.220;2023-04-03T05:23:56;0.80;;;0.60;;
65706;SDS011;52423;43.512;5.220;2023-04-03T05:26:23;0.65;;;0.40;;
65706;SDS011;52423;43.512;5.220;2023-04-03T05:28:48;0.75;;;0.55;;
65706;SDS011;52423;43.512;5.220;2023-04-03T05:31:14;0.57;;;0.57;;
65706;SDS011;52423;43.512;5.220;2023-04-03T05:33:39;1.23;;;0.60;;
65706;SDS011;52423;43.512;5.220;2023-04-03T05:36:04;0.50;;;0.50;;
65706;SDS011;52423;43.512;5.220;2023-04-03T05:38:32;0.52;;;0.50;;
65706;SDS011;52423;43.512;5.220;2023-04-03T05:40:57;0.57;;;0.57;;
65706;SDS011;52423;43.512;5.220;2023-04-03T05:43:23;1.92;;;0.80;;
65706;SDS011;52423;43.512;5.220;2023-04-03T05:45:48;5.38;;;0.70;;
65706;SDS011;52423;43.512;5.220;2023-04-03T05:48:13;3.75;;;0.52;;
65706;SDS011;52423;43.512;5.220;2023-04-03T05:50:39;0.90;;;0.75;;
65706;SDS011;52423;43.512;5.220;2023-04-03T05:53:06;1.52;;;0.50;;
65706;SDS011;52423;43.512;5.220;2023-04-03T05:55:37;0.40;;;0.40;;
65706;SDS011;52423;43.512;5.220;2023-04-03T05:58:02;1.45;;;0.73;;
65706;SDS011;52423;43.512;5.220;2023-04-03T06:00:27;0.75;;;0.75;;
65706;SDS011;52423;43.512;5.220;2023-04-03T06:02:53;1.63;;;0.80;;
65706;SDS011;52423;43.512;5.220;2023-04-03T06:05:19;0.75;;;0.75;;
65706;SDS011;52423;43.512;5.220;2023-04-03T06:07:44;1.52;;;0.65;;
65706;SDS011;52423;43.512;5.220;2023-04-03T06:10:11;0.90;;;0.50;;
65706;SDS011;52423;43.512;5.220;2023-04-03T06:12:37;1.20;;;0.52;;
65706;SDS011;52423;43.512;5.220;2023-04-03T06:15:03;2.53;;;0.60;;
65706;SDS011;52423;43.512;5.220;2023-04-03T06:17:28;0.73;;;0.60;;
65706;SDS011;52423;43.512;5.220;2023-04-03T06:19:54;1.40;;;0.70;;
65706;SDS011;52423;43.512;5.220;2023-04-03T06:22:20;3.03;;;0.30;;
65706;SDS011;52423;43.512;5.220;2023-04-03T06:24:46;5.88;;;0.90;;
65706;SDS011;52423;43.512;5.220;2023-04-03T06:27:11;0.50;;;0.50;;
65706;SDS011;52423;43.512;5.220;2023-04-03T06:29:37;0.50;;;0.50;;
65706;SDS011;52423;43.512;5.220;2023-04-03T06:32:02;0.40;;;0.40;;
65706;SDS011;52423;43.512;5.220;2023-04-03T06:34:28;1.35;;;0.60;;
65706;SDS011;52423;43.512;5.220;2023-04-03T06:36:53;3.05;;;0.47;;
65706;SDS011;52423;43.512;5.220;2023-04-03T06:39:19;0.50;;;0.50;;
65706;SDS011;52423;43.512;5.220;2023-04-03T06:41:47;0.60;;;0.60;;
65706;SDS011;52423;43.512;5.220;2023-04-03T06:44:12;0.50;;;0.50;;
65706;SDS011;52423;43.512;5.220;2023-04-03T06:46:40;0.63;;;0.63;;
65706;SDS011;52423;43.512;5.220;2023-04-03T06:49:06;3.35;;;1.10;;
65706;SDS011;52423;43.512;5.220;2023-04-03T06:51:34;1.65;;;0.77;;
65706;SDS011;52423;43.512;5.220;2023-04-03T06:54:01;3.10;;;0.95;;
65706;SDS011;52423;43.512;5.220;2023-04-03T06:56:27;2.00;;;1.10;;
65706;SDS011;52423;43.512;5.220;2023-04-03T06:58:54;0.60;;;0.60;;
65706;SDS011;52423;43.512;5.220;2023-04-03T07:01:22;5.80;;;0.70;;
65706;SDS011;52423;43.512;5.220;2023-04-03T07:03:48;0.88;;;0.60;;
65706;SDS011;52423;43.512;5.220;2023-04-03T07:06:15;0.70;;;0.70;;
65706;SDS011;52423;43.512;5.220;2023-04-03T07:08:41;4.38;;;1.00;;
65706;SDS011;52423;43.512;5.220;2023-04-03T07:11:08;0.95;;;0.77;;
65706;SDS011;52423;43.512;5.220;2023-04-03T07:13:34;1.67;;;1.17;;
65706;SDS011;52423;43.512;5.220;2023-04-03T07:16:00;0.85;;;0.70;;
65706;SDS011;52423;43.512;5.220;2023-04-03T07:18:26;0.47;;;0.47;;
65706;SDS011;52423;43.512;5.220;2023-04-03T07:20:51;0.50;;;0.50;;
65706;SDS011;52423;43.512;5.220;2023-04-03T07:23:17;0.75;;;0.50;;
65706;SDS011;52423;43.512;5.220;2023-04-03T07:25:47;0.60;;;0.60;;
65706;SDS011;52423;43.512;5.220;2023-04-03T07:28:15;0.93;;;0.60;;
65706;SDS011;52423;43.512;5.220;2023-04-03T07:30:45;2.83;;;0.70;;
65706;SDS011;52423;43.512;5.220;2023-04-03T07:33:12;0.50;;;0.50;;
65706;SDS011;52423;43.512;5.220;2023-04-03T07:35:39;1.98;;;0.60;;
65706;SDS011;52423;43.512;5.220;2023-04-03T07:38:04;3.35;;;0.60;;
65706;SDS011;52423;43.512;5.220;2023-04-03T07:40:30;0.65;;;0.50;;
65706;SDS011;52423;43.512;5.220;2023-04-03T07:42:56;1.10;;;0.50;;
65706;SDS011;52423;43.512;5.220;2023-04-03T07:45:21;2.20;;;0.55;;
65706;SDS011;52423;43.512;5.220;2023-04-03T07:47:47;0.30;;;0.30;;
65706;SDS011;52423;43.512;5.220;2023-04-03T07:50:13;0.50;;;0.50;;
65706;SDS011;52423;43.512;5.220;2023-04-03T07:52:38;0.47;;;0.47;;
65706;SDS011;52423;43.512;5.220;2023-04-03T07:55:04;0.73;;;0.60;;
65706;SDS011;52423;43.512;5.220;2023-04-03T07:57:30;0.70;;;0.50;;
65706;SDS011;52423;43.512;5.220;2023-04-03T07:59:56;1.38;;;0.50;;
65706;SDS011;52423;43.512;5.220;2023-04-03T08:02:21;2.00;;;0.40;;
65706;SDS011;52423;43.512;5.220;2023-04-03T08:04:47;0.47;;;0.47;;
65706;SDS011;52423;43.512;5.220;2023-04-03T08:07:12;0.40;;;0.40;;
65706;SDS011;52423;43.512;5.220;2023-04-03T08:09:37;0.55;;;0.40;;
65706;SDS011;52423;43.512;5.220;2023-04-03T08:12:03;0.52;;;0.52;;
65706;SDS011;52423;43.512;5.220;2023-04-03T08:14:30;0.32;;;0.30;;
65706;SDS011;52423;43.512;5.220;2023-04-03T08:16:56;0.32;;;0.32;;
65706;SDS011;52423;43.512;5.220;2023-04-03T08:19:22;0.32;;;0.20;;
65706;SDS011;52423;43.512;5.220;2023-04-03T08:21:47;0.45;;;0.45;;
65706;SDS011;52423;43.512;5.220;2023-04-03T08:24:12;0.47;;;0.47;;
65706;SDS011;52423;43.512;5.220;2023-04-03T08:26:38;0.40;;;0.40;;
65706;SDS011;52423;43.512;5.220;2023-04-03T08:29:03;0.95;;;0.40;;
65706;SDS011;52423;43.512;5.220;2023-04-03T08:31:29;0.88;;;0.70;;
65706;SDS011;52423;43.512;5.220;2023-04-03T08:33:56;0.32;;;0.32;;
65706;SDS011;52423;43.512;5.220;2023-04-03T08:36:22;0.80;;;0.30;;
65706;SDS011;52423;43.512;5.220;2023-04-03T08:38:52;0.30;;;0.30;;
65706;SDS011;52423;43.512;5.220;2023-04-03T08:41:32;4.35;;;0.47;;
65706;SDS011;52423;43.512;5.220;2023-04-03T08:49:42;6.63;;;0.73;;
65706;SDS011;52423;43.512;5.220;2023-04-03T08:52:13;0.85;;;0.45;;
65706;SDS011;52423;43.512;5.220;2023-04-03T08:57:15;0.40;;;0.40;;
65706;SDS011;52423;43.512;5.220;2023-04-03T08:59:43;0.43;;;0.35;;
65706;SDS011;52423;43.512;5.220;2023-04-03T09:02:21;0.40;;;0.40;;
65706;SDS011;52423;43.512;5.220;2023-04-03T09:04:51;1.45;;;0.70;;
65706;SDS011;52423;43.512;5.220;2023-04-03T09:07:39;1.60;;;0.32;;
65706;SDS011;52423;43.512;5.220;2023-04-03T09:10:07;1.70;;;0.50;;
65706;SDS011;52423;43.512;5.220;2023-04-03T09:12:38;1.63;;;0.52;;
65706;SDS011;52423;43.512;5.220;2023-04-03T09:23:15;0.45;;;0.45;;
65706;SDS011;52423;43.512;5.220;2023-04-03T09:25:45;2.15;;;0.30;;
65706;SDS011;52423;43.512;5.220;2023-04-03T09:28:11;0.40;;;0.40;;
65706;SDS011;52423;43.512;5.220;2023-04-03T09:30:37;1.08;;;0.30;;
65706;SDS011;52423;43.512;5.220;2023-04-03T09:33:03;2.47;;;0.52;;
65706;SDS011;52423;43.512;5.220;2023-04-03T09:35:31;0.47;;;0.30;;
65706;SDS011;52423;43.512;5.220;2023-04-03T09:40:34;0.73;;;0.30;;
65706;SDS011;52423;43.512;5.220;2023-04-03T09:45:42;6.13;;;0.47;;
65706;SDS011;52423;43.512;5.220;2023-04-03T09:48:12;4.38;;;0.28;;
65706;SDS011;52423;43.512;5.220;2023-04-03T09:51:03;2.80;;;0.40;;
65706;SDS011;52423;43.512;5.220;2023-04-03T09:53:33;1.60;;;1.33;;
65706;SDS011;52423;43.512;5.220;2023-04-03T09:56:01;1.50;;;0.45;;
65706;SDS011;52423;43.512;5.220;2023-04-03T09:58:45;0.28;;;0.25;;
65706;SDS011;52423;43.512;5.220;2023-04-03T10:04:22;0.40;;;0.40;;
65706;SDS011;52423;43.512;5.220;2023-04-03T10:06:49;0.32;;;0.32;;
65706;SDS011;52423;43.512;5.220;2023-04-03T10:09:20;1.30;;;0.57;;
65706;SDS011;52423;43.512;5.220;2023-04-03T10:11:57;1.75;;;0.50;;
65706;SDS011;52423;43.512;5.220;2023-04-03T10:14:32;0.35;;;0.35;;
65706;SDS011;52423;43.512;5.220;2023-04-03T10:24:57;1.67;;;0.47;;
65706;SDS011;52423;43.512;5.220;2023-04-03T10:38:24;1.10;;;0.50;;
65706;SDS011;52423;43.512;5.220;2023-04-03T10:44:07;0.40;;;0.40;;
65706;SDS011;52423;43.512;5.220;2023-04-03T10:46:38;0.28;;;0.28;;
65706;SDS011;52423;43.512;5.220;2023-04-03T10:51:58;0.55;;;0.30;;
65706;SDS011;52423;43.512;5.220;2023-04-03T10:55:09;0.30;;;0.30;;
65706;SDS011;52423;43.512;5.220;2023-04-03T10:57:32;0.30;;;0.30;;
65706;SDS011;52423;43.512;5.220;2023-04-03T10:59:58;0.57;;;0.50;;
65706;SDS011;52423;43.512;5.220;2023-04-03T11:02:31;0.40;;;0.40;;
65706;SDS011;52423;43.512;5.220;2023-04-03T11:05:47;0.75;;;0.40;;
65706;SDS011;52423;43.512;5.220;2023-04-03T11:07:52;0.40;;;0.40;;
65706;SDS011;52423;43.512;5.220;2023-04-03T11:10:24;3.63;;;0.50;;
65706;SDS011;52423;43.512;5.220;2023-04-03T11:13:08;0.60;;;0.43;;
65706;SDS011;52423;43.512;5.220;2023-04-03T11:15:40;1.48;;;0.50;;
65706;SDS011;52423;43.512;5.220;2023-04-03T11:18:12;0.80;;;0.47;;
65706;SDS011;52423;43.512;5.220;2023-04-03T11:20:43;0.68;;;0.38;;
65706;SDS011;52423;43.512;5.220;2023-04-03T11:23:21;0.63;;;0.20;;
65706;SDS011;52423;43.512;5.220;2023-04-03T11:25:51;0.40;;;0.40;;
65706;SDS011;52423;43.512;5.220;2023-04-03T11:28:19;0.40;;;0.40;;
65706;SDS011;52423;43.512;5.220;2023-04-03T11:36:56;0.20;;;0.20;;
65706;SDS011;52423;43.512;5.220;2023-04-03T11:39:30;0.47;;;0.40;;
65706;SDS011;52423;43.512;5.220;2023-04-03T11:42:14;0.47;;;0.17;;
65706;SDS011;52423;43.512;5.220;2023-04-03T11:44:51;0.20;;;0.20;;
65706;SDS011;52423;43.512;5.220;2023-04-03T11:48:06;2.38;;;0.38;;
65706;SDS011;52423;43.512;5.220;2023-04-03T11:50:45;1.90;;;0.30;;
65706;SDS011;52423;43.512;5.220;2023-04-03T11:55:44;1.92;;;0.40;;
65706;SDS011;52423;43.512;5.220;2023-04-03T11:58:17;1.80;;;0.43;;
65706;SDS011;52423;43.512;5.220;2023-04-03T12:16:24;0.40;;;0.40;;
65706;SDS011;52423;43.512;5.220;2023-04-03T12:21:20;0.40;;;0.40;;
65706;SDS011;52423;43.512;5.220;2023-04-03T12:23:56;2.75;;;0.68;;
65706;SDS011;52423;43.512;5.220;2023-04-03T12:26:22;0.65;;;0.38;;
65706;SDS011;52423;43.512;5.220;2023-04-03T12:28:51;4.50;;;0.50;;
65706;SDS011;52423;43.512;5.220;2023-04-03T12:31:19;1.02;;;0.40;;
65706;SDS011;52423;43.512;5.220;2023-04-03T12:36:41;1.30;;;0.45;;
65706;SDS011;52423;43.512;5.220;2023-04-03T12:39:17;5.03;;;0.50;;
65706;SDS011;52423;43.512;5.220;2023-04-03T12:44:49;7.03;;;0.65;;
65706;SDS011;52423;43.512;5.220;2023-04-03T12:47:35;0.88;;;0.68;;
65706;SDS011;52423;43.512;5.220;2023-04-03T12:50:03;2.67;;;0.80;;
65706;SDS011;52423;43.512;5.220;2023-04-03T12:52:51;4.22;;;0.55;;
65706;SDS011;52423;43.512;5.220;2023-04-03T12:55:22;0.63;;;0.52;;
65706;SDS011;52423;43.512;5.220;2023-04-03T12:57:48;1.42;;;0.65;;
65706;SDS011;52423;43.512;5.220;2023-04-03T13:00:33;2.60;;;0.50;;
65706;SDS011;52423;43.512;5.220;2023-04-03T13:03:01;0.95;;;0.80;;
65706;SDS011;52423;43.512;5.220;2023-04-03T13:05:27;3.20;;;0.80;;
65706;SDS011;52423;43.512;5.220;2023-04-03T13:08:00;2.40;;;0.60;;
65706;SDS011;52423;43.512;5.220;2023-04-03T13:10:30;14.00;;;0.98;;
65706;SDS011;52423;43.512;5.220;2023-04-03T13:12:57;7.00;;;0.60;;
65706;SDS011;52423;43.512;5.220;2023-04-03T13:15:39;4.05;;;0.70;;
65706;SDS011;52423;43.512;5.220;2023-04-03T13:18:20;1.30;;;0.75;;
65706;SDS011;52423;43.512;5.220;2023-04-03T13:20:50;3.92;;;0.60;;
65706;SDS011;52423;43.512;5.220;2023-04-03T13:23:16;0.75;;;0.50;;
65706;SDS011;52423;43.512;5.220;2023-04-03T13:25:43;3.03;;;1.42;;
65706;SDS011;52423;43.512;5.220;2023-04-03T13:28:11;2.75;;;0.90;;
65706;SDS011;52423;43.512;5.220;2023-04-03T13:30:40;4.93;;;0.63;;
65706;SDS011;52423;43.512;5.220;2023-04-03T13:33:20;5.05;;;0.95;;
65706;SDS011;52423;43.512;5.220;2023-04-03T13:35:47;1.42;;;0.73;;
65706;SDS011;52423;43.512;5.220;2023-04-03T13:38:29;1.40;;;0.70;;
65706;SDS011;52423;43.512;5.220;2023-04-03T13:41:02;8.20;;;0.80;;
65706;SDS011;52423;43.512;5.220;2023-04-03T13:43:31;1.75;;;0.70;;
65706;SDS011;52423;43.512;5.220;2023-04-03T13:46:01;5.78;;;1.75;;
65706;SDS011;52423;43.512;5.220;2023-04-03T13:48:36;5.05;;;0.70;;
65706;SDS011;52423;43.512;5.220;2023-04-03T13:51:04;4.43;;;0.73;;
65706;SDS011;52423;43.512;5.220;2023-04-03T13:53:45;0.77;;;0.77;;
65706;SDS011;52423;43.512;5.220;2023-04-03T13:56:17;1.42;;;0.88;;
65706;SDS011;52423;43.512;5.220;2023-04-03T14:02:14;1.75;;;0.75;;
65706;SDS011;52423;43.512;5.220;2023-04-03T14:06:49;1.85;;;0.63;;
65706;SDS011;52423;43.512;5.220;2023-04-03T14:09:17;3.00;;;0.88;;
65706;SDS011;52423;43.512;5.220;2023-04-03T14:11:43;2.55;;;0.93;;
65706;SDS011;52423;43.512;5.220;2023-04-03T14:14:12;2.83;;;0.90;;
65706;SDS011;52423;43.512;5.220;2023-04-03T14:16:46;1.20;;;0.90;;
65706;SDS011;52423;43.512;5.220;2023-04-03T14:21:57;4.33;;;0.67;;
65706;SDS011;52423;43.512;5.220;2023-04-03T14:24:23;0.93;;;0.60;;
65706;SDS011;52423;43.512;5.220;2023-04-03T14:26:50;2.33;;;0.70;;
65706;SDS011;52423;43.512;5.220;2023-04-03T14:29:17;1.50;;;0.73;;
65706;SDS011;52423;43.512;5.220;2023-04-03T14:31:44;3.17;;;0.90;;
65706;SDS011;52423;43.512;5.220;2023-04-03T14:34:11;1.63;;;0.80;;
65706;SDS011;52423;43.512;5.220;2023-04-03T14:36:37;0.65;;;0.65;;
65706;SDS011;52423;43.512;5.220;2023-04-03T14:39:04;3.80;;;0.80;;
65706;SDS011;52423;43.512;5.220;2023-04-03T14:41:30;4.32;;;1.25;;
65706;SDS011;52423;43.512;5.220;2023-04-03T14:43:55;3.90;;;1.05;;
65706;SDS011;52423;43.512;5.220;2023-04-03T14:46:38;3.25;;;0.95;;
65706;SDS011;52423;43.512;5.220;2023-04-03T14:49:18;2.58;;;1.10;;
65706;SDS011;52423;43.512;5.220;2023-04-03T14:51:45;2.40;;;0.75;;
65706;SDS011;52423;43.512;5.220;2023-04-03T14:54:15;5.45;;;1.20;;
65706;SDS011;52423;43.512;5.220;2023-04-03T14:56:43;6.45;;;1.50;;
65706;SDS011;52423;43.512;5.220;2023-04-03T14:59:09;1.55;;;0.93;;
65706;SDS011;52423;43.512;5.220;2023-04-03T15:01:37;1.30;;;1.00;;
65706;SDS011;52423;43.512;5.220;2023-04-03T15:04:23;2.28;;;1.38;;
65706;SDS011;52423;43.512;5.220;2023-04-03T15:06:48;1.70;;;1.15;;
65706;SDS011;52423;43.512;5.220;2023-04-03T15:09:18;1.85;;;1.00;;
65706;SDS011;52423;43.512;5.220;2023-04-03T15:11:45;1.27;;;1.13;;
65706;SDS011;52423;43.512;5.220;2023-04-03T15:14:11;5.00;;;0.98;;
65706;SDS011;52423;43.512;5.220;2023-04-03T15:16:36;2.58;;;0.95;;
65706;SDS011;52423;43.512;5.220;2023-04-03T15:19:02;1.23;;;0.90;;
65706;SDS011;52423;43.512;5.220;2023-04-03T15:21:27;8.00;;;1.10;;
65706;SDS011;52423;43.512;5.220;2023-04-03T15:23:53;3.53;;;1.10;;
65706;SDS011;52423;43.512;5.220;2023-04-03T15:26:18;2.60;;;1.27;;
65706;SDS011;52423;43.512;5.220;2023-04-03T15:28:43;2.65;;;1.02;;
65706;SDS011;52423;43.512;5.220;2023-04-03T15:31:10;1.23;;;1.10;;
65706;SDS011;52423;43.512;5.220;2023-04-03T15:33:36;1.00;;;1.00;;
65706;SDS011;52423;43.512;5.220;2023-04-03T15:36:02;1.00;;;1.00;;
65706;SDS011;52423;43.512;5.220;2023-04-03T15:38:28;2.60;;;1.08;;
65706;SDS011;52423;43.512;5.220;2023-04-03T15:40:54;6.07;;;1.35;;
65706;SDS011;52423;43.512;5.220;2023-04-03T15:43:20;6.15;;;1.20;;
65706;SDS011;52423;43.512;5.220;2023-04-03T15:45:47;1.55;;;1.05;;
65706;SDS011;52423;43.512;5.220;2023-04-03T15:48:13;2.30;;;1.30;;
65706;SDS011;52423;43.512;5.220;2023-04-03T15:50:38;4.40;;;1.70;;
65706;SDS011;52423;43.512;5.220;2023-04-03T15:53:04;2.40;;;1.35;;
65706;SDS011;52423;43.512;5.220;2023-04-03T15:55:31;3.50;;;1.52;;
65706;SDS011;52423;43.512;5.220;2023-04-03T15:57:58;3.83;;;1.23;;
65706;SDS011;52423;43.512;5.220;2023-04-03T16:00:23;4.68;;;1.30;;
65706;SDS011;52423;43.512;5.220;2023-04-03T16:02:50;1.20;;;1.10;;
65706;SDS011;52423;43.512;5.220;2023-04-03T16:05:36;3.53;;;1.58;;
65706;SDS011;52423;43.512;5.220;2023-04-03T16:08:03;3.35;;;1.38;;
65706;SDS011;52423;43.512;5.220;2023-04-03T16:10:30;5.28;;;1.55;;
65706;SDS011;52423;43.512;5.220;2023-04-03T16:12:55;11.50;;;1.50;;
65706;SDS011;52423;43.512;5.220;2023-04-03T16:15:21;1.20;;;1.10;;
65706;SDS011;52423;43.512;5.220;2023-04-03T16:17:47;4.63;;;2.13;;
65706;SDS011;52423;43.512;5.220;2023-04-03T16:20:13;2.22;;;1.23;;
65706;SDS011;52423;43.512;5.220;2023-04-03T16:22:39;1.75;;;1.65;;
65706;SDS011;52423;43.512;5.220;2023-04-03T16:25:06;2.40;;;2.20;;
65706;SDS011;52423;43.512;5.220;2023-04-03T16:27:32;4.10;;;1.30;;
65706;SDS011;52423;43.512;5.220;2023-04-03T16:29:58;1.75;;;1.25;;
65706;SDS011;52423;43.512;5.220;2023-04-03T16:32:24;3.65;;;1.30;;
65706;SDS011;52423;43.512;5.220;2023-04-03T16:34:52;4.70;;;1.15;;